createdAt,value
2023-05-05T00:00:20.918Z,91.57
2023-05-05T00:02:48.237Z,92.79
2023-05-05T00:05:14.992Z,93.40
2023-05-05T00:07:41.963Z,92.91
2023-05-05T00:10:09.750Z,92.80
2023-05-05T00:12:36.872Z,93.97
2023-05-05T00:15:03.969Z,93.85
2023-05-05T00:17:30.866Z,94.04
2023-05-05T00:19:58.094Z,94.28
2023-05-05T00:22:24.765Z,94.44
2023-05-05T00:24:51.465Z,94.29
2023-05-05T00:27:18.170Z,94.52
2023-05-05T00:29:44.855Z,95.60
2023-05-05T00:32:11.589Z,95.25
2023-05-05T00:34:38.293Z,95.88
2023-05-05T00:37:05.031Z,94.70
2023-05-05T00:39:33.283Z,94.81
2023-05-05T00:42:00.037Z,96.01
2023-05-05T00:44:41.087Z,94.73
2023-05-05T00:47:11.455Z,95.02
2023-05-05T00:49:38.324Z,96.01
2023-05-05T00:52:05.414Z,95.88
2023-05-05T00:54:32.429Z,96.58
2023-05-05T00:56:59.115Z,95.73
2023-05-05T00:59:25.893Z,96.06
2023-05-05T01:01:52.748Z,95.86
2023-05-05T01:04:19.490Z,96.19
2023-05-05T01:06:54.741Z,96.40
2023-05-05T01:09:47.243Z,95.30
2023-05-05T01:12:41.777Z,95.78
2023-05-05T01:15:15.911Z,96.01
2023-05-05T01:17:56.115Z,95.61
2023-05-05T01:21:01.622Z,96.29
2023-05-05T01:23:36.993Z,95.51
2023-05-05T01:26:29.852Z,96.63
2023-05-05T01:29:22.926Z,96.60
2023-05-05T01:31:53.747Z,97.11
2023-05-05T01:34:34.542Z,95.87
2023-05-05T01:37:22.364Z,95.73
2023-05-05T01:39:53.367Z,96.61
2023-05-05T01:42:20.097Z,95.93
2023-05-05T01:44:46.797Z,95.38
2023-05-05T01:47:16.188Z,93.98
2023-05-05T01:49:47.105Z,94.65
2023-05-05T01:52:14.890Z,94.57
2023-05-05T01:54:42.402Z,94.40
2023-05-05T01:57:09.256Z,95.01
2023-05-05T01:59:37.013Z,94.73
2023-05-05T02:02:03.874Z,94.53
2023-05-05T02:04:31.807Z,95.16
2023-05-05T02:06:58.641Z,95.28
2023-05-05T02:09:25.732Z,95.56
2023-05-05T02:11:52.980Z,95.96
2023-05-05T02:14:19.868Z,96.74
2023-05-05T02:16:46.919Z,96.92
2023-05-05T02:19:14.108Z,97.21
2023-05-05T02:21:41.390Z,98.27
2023-05-05T02:24:08.761Z,98.49
2023-05-05T02:26:36.158Z,97.55
2023-05-05T02:29:11.154Z,98.31
2023-05-05T02:31:45.787Z,96.96
2023-05-05T02:34:12.572Z,97.95
2023-05-05T02:36:40.043Z,98.10
2023-05-05T02:39:14.729Z,97.65
2023-05-05T02:41:41.692Z,96.45
2023-05-05T02:44:08.575Z,97.42
2023-05-05T02:46:35.658Z,96.30
2023-05-05T02:49:02.380Z,96.88
2023-05-05T02:51:29.081Z,95.67
2023-05-05T02:53:56.368Z,96.84
2023-05-05T02:56:32.781Z,95.09
2023-05-05T02:59:18.178Z,95.18
2023-05-05T03:02:01.150Z,95.33
2023-05-05T03:04:31.988Z,95.58
2023-05-05T03:06:59.885Z,94.62
2023-05-05T03:09:51.396Z,94.95
2023-05-05T03:12:21.762Z,94.90
2023-05-05T03:14:48.879Z,95.90
2023-05-05T03:17:15.570Z,95.19
2023-05-05T03:19:43.220Z,96.79
2023-05-05T03:22:10.067Z,95.04
2023-05-05T03:24:36.865Z,95.16
2023-05-05T03:27:03.604Z,94.01
2023-05-05T03:29:30.310Z,93.02
2023-05-05T03:31:57.115Z,92.45
2023-05-05T03:34:23.907Z,93.18
2023-05-05T03:36:50.663Z,91.61
2023-05-05T03:39:18.860Z,91.23
2023-05-05T03:41:45.687Z,90.88
2023-05-05T03:44:12.395Z,89.67
2023-05-05T03:46:39.269Z,90.11
2023-05-05T03:49:05.958Z,88.19
2023-05-05T03:51:32.720Z,88.25
2023-05-05T03:53:59.451Z,86.86
2023-05-05T03:56:26.172Z,86.65
2023-05-05T03:58:52.909Z,86.45
2023-05-05T04:01:19.603Z,85.12
2023-05-05T04:03:46.443Z,83.67
2023-05-05T04:06:13.284Z,82.56
2023-05-05T04:08:40.087Z,81.60
2023-05-05T04:11:07.017Z,82.44
2023-05-05T04:13:33.720Z,81.30
2023-05-05T04:16:00.480Z,80.75
2023-05-05T04:18:27.211Z,79.12
2023-05-05T04:20:53.945Z,77.34
2023-05-05T04:23:20.700Z,77.09
2023-05-05T04:25:47.756Z,75.22
2023-05-05T04:28:14.502Z,73.73
2023-05-05T04:30:41.280Z,75.83
2023-05-05T04:33:08.060Z,73.39
2023-05-05T04:35:34.894Z,74.38
2023-05-05T04:38:02.003Z,74.53
2023-05-05T04:40:28.735Z,74.25
2023-05-05T04:42:55.524Z,73.06
2023-05-05T04:45:22.305Z,75.17
2023-05-05T04:47:49.118Z,75.51
2023-05-05T04:50:16.650Z,75.58
2023-05-05T04:52:43.339Z,77.64
2023-05-05T04:55:10.841Z,77.41
2023-05-05T04:57:37.619Z,77.32
2023-05-05T05:00:05.594Z,76.48
2023-05-05T05:02:32.612Z,77.29
2023-05-05T05:04:59.391Z,75.53
2023-05-05T05:07:26.464Z,73.84
2023-05-05T05:09:53.178Z,72.11
2023-05-05T05:12:19.933Z,70.64
2023-05-05T05:14:46.718Z,66.93
2023-05-05T05:17:13.571Z,65.28
2023-05-05T05:19:40.297Z,64.17
2023-05-05T05:22:06.976Z,63.47
2023-05-05T05:24:34.862Z,63.77
2023-05-05T05:27:01.682Z,62.18
2023-05-05T05:29:28.423Z,61.20
2023-05-05T05:31:55.135Z,60.55
2023-05-05T05:34:21.830Z,60.59
2023-05-05T05:36:48.572Z,59.60
2023-05-05T05:39:15.332Z,59.20
2023-05-05T05:41:42.159Z,58.53
2023-05-05T05:44:08.850Z,57.94
2023-05-05T05:46:35.694Z,57.14
2023-05-05T05:49:02.537Z,54.04
2023-05-05T05:51:29.324Z,53.37
2023-05-05T05:53:58.685Z,50.61
2023-05-05T05:56:25.600Z,49.30
2023-05-05T05:58:52.441Z,49.53
2023-05-05T06:01:19.518Z,48.77
2023-05-05T06:03:46.380Z,49.69
2023-05-05T06:06:13.140Z,47.97
2023-05-05T06:08:39.860Z,46.00
2023-05-05T06:11:06.604Z,44.92
2023-05-05T06:13:33.428Z,45.72
2023-05-05T06:16:00.427Z,45.17
2023-05-05T06:18:27.342Z,45.57
2023-05-05T06:20:54.128Z,44.60
2023-05-05T06:23:20.901Z,44.68
2023-05-05T06:25:48.075Z,43.54
2023-05-05T06:28:14.857Z,41.96
2023-05-05T06:30:41.620Z,41.79
2023-05-05T06:33:08.474Z,44.41
2023-05-05T06:35:35.207Z,44.42
2023-05-05T06:38:01.903Z,43.53
2023-05-05T06:40:28.688Z,42.05
2023-05-05T06:42:55.510Z,41.70
2023-05-05T06:45:22.273Z,41.94
2023-05-05T06:47:49.609Z,41.67
2023-05-05T06:50:16.658Z,43.52
2023-05-05T06:52:43.388Z,40.13
2023-05-05T06:55:10.257Z,40.83
2023-05-05T06:57:36.998Z,41.55
2023-05-05T07:00:09.811Z,43.25
2023-05-05T07:02:37.216Z,41.03
2023-05-05T07:05:04.403Z,41.95
2023-05-05T07:07:32.452Z,41.15
2023-05-05T07:09:59.230Z,41.58
2023-05-05T07:12:25.925Z,41.71
2023-05-05T07:14:52.681Z,41.41
2023-05-05T07:17:19.401Z,40.64
2023-05-05T07:19:46.151Z,41.14
2023-05-05T07:22:12.882Z,39.91
2023-05-05T07:24:39.561Z,40.30
2023-05-05T07:27:07.067Z,39.67
2023-05-05T07:29:33.825Z,39.23
2023-05-05T07:32:00.735Z,39.88
2023-05-05T07:34:27.869Z,38.81
2023-05-05T07:36:56.436Z,40.35
2023-05-05T07:39:23.193Z,39.48
2023-05-05T07:41:50.036Z,39.49
2023-05-05T07:44:16.814Z,39.71
2023-05-05T07:46:43.549Z,39.05
2023-05-05T07:49:10.477Z,39.42
2023-05-05T07:51:37.703Z,25.22
2023-05-05T07:54:04.426Z,26.60
2023-05-05T07:56:31.194Z,27.87
2023-05-05T07:58:57.896Z,27.99
2023-05-05T08:01:24.560Z,30.95
2023-05-05T08:03:51.519Z,30.77
2023-05-05T08:06:25.294Z,31.36
2023-05-05T08:08:53.504Z,32.47
2023-05-05T08:11:21.794Z,30.04
2023-05-05T08:13:48.779Z,32.87
2023-05-05T08:16:15.904Z,33.67
2023-05-05T08:18:42.812Z,29.97
2023-05-05T08:21:09.722Z,32.98
2023-05-05T08:23:36.419Z,30.47
2023-05-05T08:26:03.667Z,31.62
2023-05-05T08:28:30.574Z,33.01
2023-05-05T08:30:57.322Z,34.67
2023-05-05T08:33:24.025Z,34.72
2023-05-05T08:35:50.869Z,35.58
2023-05-05T08:38:19.136Z,33.74
2023-05-05T08:40:45.943Z,32.65
2023-05-05T08:43:12.727Z,34.24
2023-05-05T08:45:40.827Z,34.42
2023-05-05T08:48:07.736Z,35.92
2023-05-05T08:50:34.564Z,34.78
2023-05-05T08:53:22.504Z,32.96
2023-05-05T08:55:52.506Z,33.06
2023-05-05T08:58:19.685Z,32.16
2023-05-05T09:00:46.779Z,33.38
2023-05-05T09:03:13.658Z,32.35
2023-05-05T09:05:40.544Z,29.28
2023-05-05T09:08:10.034Z,28.07
2023-05-05T09:10:36.914Z,28.59
2023-05-05T09:13:05.376Z,30.53
2023-05-05T09:15:33.090Z,28.98
2023-05-05T09:18:00.833Z,30.02
2023-05-05T09:20:37.576Z,30.38
2023-05-05T09:23:20.064Z,30.64
2023-05-05T09:25:48.822Z,29.71
2023-05-05T09:28:17.181Z,30.90
2023-05-05T09:30:45.443Z,30.75
2023-05-05T09:33:12.384Z,30.11
2023-05-05T09:35:55.834Z,30.41
2023-05-05T09:38:23.410Z,32.72
2023-05-05T09:40:53.794Z,31.73
2023-05-05T09:43:21.998Z,30.71
2023-05-05T09:45:49.227Z,27.88
2023-05-05T09:48:29.753Z,30.38
2023-05-05T09:50:57.186Z,30.26
2023-05-05T09:53:24.405Z,29.73
2023-05-05T09:55:55.222Z,28.94
2023-05-05T09:58:24.136Z,28.73
2023-05-05T10:00:51.006Z,28.95
2023-05-05T10:03:17.913Z,29.39
2023-05-05T10:05:55.708Z,30.39
2023-05-05T10:08:30.519Z,29.32
2023-05-05T10:11:00.735Z,28.95
2023-05-05T10:13:27.968Z,31.49
2023-05-05T10:15:56.124Z,31.99
2023-05-05T10:18:27.052Z,30.29
2023-05-05T10:21:01.341Z,31.31
2023-05-05T10:23:49.072Z,29.63
2023-05-05T10:26:15.973Z,29.87
2023-05-05T10:29:04.128Z,31.33
2023-05-05T10:32:00.607Z,29.59
2023-05-05T10:34:35.846Z,29.66
2023-05-05T10:37:04.643Z,28.51
2023-05-05T10:39:31.545Z,30.99
2023-05-05T10:42:02.001Z,30.32
2023-05-05T10:44:32.056Z,29.04
2023-05-05T10:46:58.799Z,28.70
2023-05-05T10:49:41.539Z,28.95
2023-05-05T10:52:38.178Z,28.96
2023-05-05T10:55:16.354Z,31.49
2023-05-05T10:57:44.706Z,26.96
2023-05-05T11:00:31.858Z,26.11
2023-05-05T11:03:18.545Z,27.94
2023-05-05T11:06:12.687Z,31.91
2023-05-05T11:08:43.926Z,31.23
2023-05-05T11:11:11.297Z,29.53
2023-05-05T11:13:38.988Z,30.18
2023-05-05T11:16:06.064Z,29.25
2023-05-05T11:18:37.042Z,28.84
2023-05-05T11:21:07.328Z,29.77
2023-05-05T11:23:34.358Z,31.39
2023-05-05T11:26:01.903Z,29.38
2023-05-05T11:28:32.397Z,30.36
2023-05-05T11:31:02.286Z,28.77
2023-05-05T11:33:33.311Z,27.40
2023-05-05T11:36:07.556Z,30.43
2023-05-05T11:39:11.956Z,31.12
2023-05-05T11:42:06.588Z,30.53
2023-05-05T11:44:36.380Z,30.88
2023-05-05T11:47:06.122Z,32.44
2023-05-05T11:49:34.076Z,30.53
2023-05-05T11:52:02.434Z,31.56
2023-05-05T11:54:29.412Z,28.97
2023-05-05T11:57:00.662Z,30.31
2023-05-05T11:59:27.615Z,29.73
2023-05-05T12:01:54.437Z,30.02
2023-05-05T12:04:21.438Z,28.78
2023-05-05T12:06:49.260Z,27.56
2023-05-05T12:09:20.235Z,28.90
2023-05-05T12:11:54.067Z,30.20
2023-05-05T12:14:21.172Z,29.93
2023-05-05T12:17:06.697Z,29.61
2023-05-05T12:19:33.856Z,29.50
2023-05-05T12:22:04.477Z,30.02
2023-05-05T12:24:31.667Z,31.59
2023-05-05T12:27:11.260Z,31.00
2023-05-05T12:29:38.243Z,28.59
2023-05-05T12:32:05.425Z,27.46
2023-05-05T12:34:32.294Z,30.40
2023-05-05T12:36:59.141Z,30.33
2023-05-05T12:39:36.708Z,28.17
2023-05-05T12:42:04.434Z,30.56
2023-05-05T12:44:38.065Z,30.80
2023-05-05T12:47:05.057Z,30.96
2023-05-05T12:49:34.462Z,29.29
2023-05-05T12:52:01.656Z,28.64
2023-05-05T12:54:29.841Z,30.38
2023-05-05T12:56:59.703Z,31.06
2023-05-05T12:59:27.553Z,30.53
2023-05-05T13:01:59.972Z,29.53
2023-05-05T13:04:27.987Z,29.94
2023-05-05T13:07:14.342Z,28.84
2023-05-05T13:09:41.359Z,28.15
2023-05-05T13:12:13.877Z,30.00
2023-05-05T13:14:40.944Z,30.14
2023-05-05T13:17:07.911Z,31.86
2023-05-05T13:19:42.938Z,28.83
2023-05-05T13:22:13.015Z,31.28
2023-05-05T13:24:50.684Z,32.51
2023-05-05T13:27:18.177Z,31.52
2023-05-05T13:29:45.004Z,33.41
2023-05-05T13:32:11.897Z,31.40
2023-05-05T13:34:39.542Z,34.86
2023-05-05T13:37:06.572Z,33.19
2023-05-05T13:39:33.474Z,29.01
2023-05-05T13:42:00.254Z,32.76
2023-05-05T13:44:27.047Z,30.59
2023-05-05T13:46:54.006Z,32.50
2023-05-05T13:49:20.905Z,33.78
2023-05-05T13:51:47.657Z,33.56
2023-05-05T13:54:14.444Z,34.48
2023-05-05T13:56:41.332Z,34.50
2023-05-05T13:59:08.200Z,33.48
2023-05-05T14:01:35.202Z,32.16
2023-05-05T14:04:05.154Z,30.54
2023-05-05T14:06:33.012Z,33.08
2023-05-05T14:08:59.900Z,34.75
2023-05-05T14:11:26.717Z,32.97
2023-05-05T14:13:53.453Z,31.71
2023-05-05T14:16:20.340Z,33.87
2023-05-05T14:18:47.172Z,33.03
2023-05-05T14:21:13.960Z,31.69
2023-05-05T14:23:40.880Z,30.74
2023-05-05T14:26:09.171Z,32.57
2023-05-05T14:28:36.146Z,30.12
2023-05-05T14:31:02.954Z,30.87
2023-05-05T14:33:31.109Z,32.70
2023-05-05T14:35:57.829Z,34.52
2023-05-05T14:38:24.727Z,32.68
2023-05-05T14:40:51.490Z,32.74
2023-05-05T14:43:18.638Z,34.08
2023-05-05T14:45:45.548Z,37.01
2023-05-05T14:48:12.346Z,39.00
2023-05-05T14:50:40.709Z,39.19
2023-05-05T14:53:07.568Z,37.92
2023-05-05T14:55:34.337Z,37.40
2023-05-05T14:58:01.391Z,37.13
2023-05-05T15:00:28.663Z,38.27
2023-05-05T15:02:55.572Z,37.63
2023-05-05T15:05:22.432Z,38.97
2023-05-05T15:07:49.395Z,39.60
2023-05-05T15:10:17.260Z,42.38
2023-05-05T15:12:45.064Z,41.73
2023-05-05T15:15:12.048Z,42.56
2023-05-05T15:17:39.024Z,44.25
2023-05-05T15:20:06.907Z,43.86
2023-05-05T15:22:33.861Z,44.90
2023-05-05T15:25:01.373Z,46.88
2023-05-05T15:27:28.358Z,47.46
2023-05-05T15:29:55.460Z,48.09
2023-05-05T15:32:22.389Z,49.13
2023-05-05T15:34:50.526Z,49.79
2023-05-05T15:37:17.542Z,48.97
2023-05-05T15:39:44.311Z,49.47
2023-05-05T15:42:11.185Z,50.40
2023-05-05T15:44:38.113Z,48.71
2023-05-05T15:47:05.157Z,48.52
2023-05-05T15:49:32.103Z,50.07
2023-05-05T15:51:58.964Z,50.91
2023-05-05T15:54:26.081Z,50.89
2023-05-05T15:56:52.963Z,50.67
2023-05-05T15:59:19.731Z,52.61
2023-05-05T16:01:47.314Z,52.63
2023-05-05T16:04:14.200Z,52.06
2023-05-05T16:06:41.195Z,52.88
2023-05-05T16:09:08.018Z,52.83
2023-05-05T16:11:35.063Z,55.65
2023-05-05T16:14:01.923Z,58.10
2023-05-05T16:16:28.815Z,59.49
2023-05-05T16:18:55.755Z,60.23
2023-05-05T16:21:22.567Z,61.67
2023-05-05T16:23:49.353Z,61.65
2023-05-05T16:26:16.211Z,62.41
2023-05-05T16:28:43.116Z,62.42
2023-05-05T16:31:11.133Z,62.79
2023-05-05T16:33:43.573Z,63.88
2023-05-05T16:36:11.645Z,64.05
2023-05-05T16:38:39.216Z,64.75
2023-05-05T16:41:07.173Z,64.31
2023-05-05T16:43:34.219Z,66.56
2023-05-05T16:46:01.068Z,67.03
2023-05-05T16:48:28.006Z,66.93
2023-05-05T16:50:57.110Z,68.56
2023-05-05T16:53:24.237Z,68.29
2023-05-05T16:55:54.777Z,68.43
2023-05-05T16:58:22.565Z,67.94
2023-05-05T17:00:50.107Z,69.12
2023-05-05T17:03:17.375Z,70.65
2023-05-05T17:05:45.139Z,71.34
2023-05-05T17:08:14.384Z,70.84
2023-05-05T17:10:42.085Z,72.70
2023-05-05T17:13:09.533Z,73.07
2023-05-05T17:15:37.529Z,72.35
2023-05-05T17:18:05.164Z,72.80
2023-05-05T17:20:32.117Z,72.80
2023-05-05T17:22:58.985Z,72.24
2023-05-05T17:25:28.591Z,72.76
2023-05-05T17:27:55.713Z,72.94
2023-05-05T17:30:22.570Z,73.23
2023-05-05T17:32:49.523Z,72.75
2023-05-05T17:35:16.526Z,73.01
2023-05-05T17:37:43.407Z,75.46
2023-05-05T17:40:10.606Z,75.26
2023-05-05T17:42:38.464Z,75.86
2023-05-05T17:45:05.847Z,75.68
2023-05-05T17:47:32.752Z,74.62
2023-05-05T17:49:59.693Z,74.45
2023-05-05T17:52:26.623Z,74.50
2023-05-05T17:54:53.433Z,74.94
2023-05-05T17:57:23.076Z,76.11
2023-05-05T17:59:50.480Z,76.17
2023-05-05T18:02:17.439Z,75.95
2023-05-05T18:04:44.346Z,76.11
2023-05-05T18:07:12.465Z,78.10
2023-05-05T18:09:39.509Z,78.39
2023-05-05T18:12:07.844Z,78.70
2023-05-05T18:14:34.706Z,78.87
2023-05-05T18:17:01.591Z,80.75
2023-05-05T18:19:28.462Z,80.90
2023-05-05T18:21:55.297Z,82.38
2023-05-05T18:24:22.205Z,83.09
2023-05-05T18:26:50.522Z,82.66
2023-05-05T18:29:21.766Z,83.49
2023-05-05T18:31:51.823Z,83.61
2023-05-05T18:34:19.463Z,84.19
2023-05-05T18:36:46.770Z,84.03
2023-05-05T18:39:14.120Z,84.79
2023-05-05T18:41:41.185Z,85.95
2023-05-05T18:44:08.168Z,85.22
2023-05-05T18:46:35.114Z,87.14
2023-05-05T18:49:02.313Z,86.39
2023-05-05T18:51:29.147Z,86.17
2023-05-05T18:53:56.019Z,86.77
2023-05-05T18:56:22.858Z,87.55
2023-05-05T18:58:49.978Z,88.54
2023-05-05T19:01:17.241Z,87.09
2023-05-05T19:03:50.399Z,87.35
2023-05-05T19:06:17.400Z,88.91
2023-05-05T19:08:45.739Z,87.72
2023-05-05T19:11:14.798Z,88.61
2023-05-05T19:13:41.885Z,89.05
2023-05-05T19:16:08.671Z,89.40
2023-05-05T19:18:35.575Z,89.25
2023-05-05T19:21:02.406Z,89.50
2023-05-05T19:23:29.170Z,89.81
2023-05-05T19:25:55.957Z,89.61
2023-05-05T19:28:22.814Z,90.25
2023-05-05T19:30:49.682Z,90.75
2023-05-05T19:33:16.604Z,90.06
2023-05-05T19:35:43.867Z,91.32
2023-05-05T19:38:10.997Z,89.83
2023-05-05T19:40:38.917Z,89.96
2023-05-05T19:43:05.758Z,90.55
2023-05-05T19:45:33.698Z,90.62
2023-05-05T19:48:01.547Z,91.42
2023-05-05T19:50:30.408Z,91.18
2023-05-05T19:52:57.951Z,89.72
2023-05-05T19:55:24.999Z,90.01
2023-05-05T19:57:51.875Z,89.43
2023-05-05T20:00:19.752Z,89.29
2023-05-05T20:02:48.669Z,89.85
2023-05-05T20:05:17.332Z,89.27
2023-05-05T20:07:44.971Z,90.39
2023-05-05T20:10:13.453Z,90.81
2023-05-05T20:12:42.551Z,91.40
2023-05-05T20:15:11.378Z,90.88
2023-05-05T20:17:38.224Z,91.41
2023-05-05T20:20:05.505Z,90.42
2023-05-05T20:22:32.365Z,91.87
2023-05-05T20:24:59.178Z,91.28
2023-05-05T20:27:26.734Z,92.25
2023-05-05T20:29:55.366Z,91.82
2023-05-05T20:32:22.198Z,91.82
2023-05-05T20:34:48.940Z,92.81
2023-05-05T20:37:15.800Z,92.55
2023-05-05T20:39:43.831Z,92.27
2023-05-05T20:42:11.093Z,92.92
2023-05-05T20:44:38.418Z,93.68
2023-05-05T20:47:05.663Z,93.74
2023-05-05T20:49:32.843Z,93.47
2023-05-05T20:51:59.620Z,93.91
2023-05-05T20:54:30.139Z,93.92
2023-05-05T20:56:58.205Z,93.12
2023-05-05T20:59:25.076Z,94.27
2023-05-05T21:01:51.886Z,94.69
2023-05-05T21:04:18.721Z,95.49
2023-05-05T21:06:45.998Z,94.40
2023-05-05T21:09:12.965Z,94.50
2023-05-05T21:11:39.685Z,95.09
2023-05-05T21:14:06.432Z,95.63
2023-05-05T21:16:33.316Z,94.68
2023-05-05T21:19:00.151Z,95.49
2023-05-05T21:21:26.981Z,95.38
2023-05-05T21:23:57.685Z,95.50
2023-05-05T21:26:25.195Z,95.86
2023-05-05T21:28:52.602Z,96.21
2023-05-05T21:31:22.112Z,96.07
2023-05-05T21:33:49.701Z,95.83
2023-05-05T21:36:17.678Z,96.88
2023-05-05T21:38:44.538Z,95.91
2023-05-05T21:41:11.400Z,96.77
2023-05-05T21:43:38.169Z,97.48
2023-05-05T21:46:05.415Z,96.63
2023-05-05T21:48:32.685Z,97.74
2023-05-05T21:50:59.539Z,97.32
2023-05-05T21:53:26.479Z,97.55
2023-05-05T21:55:53.288Z,97.25
2023-05-05T21:58:20.357Z,96.63
2023-05-05T22:00:50.195Z,96.70
2023-05-05T22:03:17.616Z,97.44
2023-05-05T22:05:44.637Z,98.00
2023-05-05T22:08:11.463Z,97.79
2023-05-05T22:10:39.317Z,97.76
2023-05-05T22:13:06.281Z,97.10
2023-05-05T22:15:45.376Z,97.05
2023-05-05T22:18:13.880Z,97.66
2023-05-05T22:20:40.696Z,97.27
2023-05-05T22:23:07.545Z,97.27
2023-05-05T22:25:34.413Z,97.86
2023-05-05T22:28:01.278Z,98.41
2023-05-05T22:30:28.142Z,98.13
2023-05-05T22:32:55.271Z,97.96
2023-05-05T22:35:22.178Z,98.56
2023-05-05T22:37:48.974Z,98.18
2023-05-05T22:40:15.883Z,98.65
2023-05-05T22:42:42.740Z,98.50
2023-05-05T22:45:10.521Z,98.61
2023-05-05T22:47:37.664Z,98.93
2023-05-05T22:50:04.753Z,98.13
2023-05-05T22:52:31.627Z,98.64
2023-05-05T22:54:58.484Z,98.76
2023-05-05T22:57:25.325Z,98.80
2023-05-05T22:59:52.328Z,98.26
2023-05-05T23:02:19.226Z,98.30
2023-05-05T23:04:46.419Z,98.58
2023-05-05T23:07:13.448Z,98.56
2023-05-05T23:09:41.080Z,98.39
2023-05-05T23:12:08.087Z,98.90
2023-05-05T23:14:35.430Z,98.92
2023-05-05T23:17:02.283Z,99.12
2023-05-05T23:19:32.173Z,98.72
2023-05-05T23:21:59.809Z,99.16
2023-05-05T23:24:27.171Z,99.21
2023-05-05T23:26:54.107Z,98.53
2023-05-05T23:29:21.089Z,98.88
2023-05-05T23:31:47.910Z,98.99
2023-05-05T23:34:14.777Z,98.92
2023-05-05T23:36:41.547Z,98.58
2023-05-05T23:39:08.388Z,98.67
2023-05-05T23:41:35.232Z,99.01
2023-05-05T23:44:02.008Z,98.46
2023-05-05T23:46:29.448Z,98.92
2023-05-05T23:48:56.668Z,98.64
2023-05-05T23:51:23.567Z,99.10
2023-05-05T23:53:50.426Z,98.87
2023-05-05T23:56:17.224Z,98.81
2023-05-05T23:58:44.073Z,98.73
